Irene, Texas
Current Conditions -  °F | °C
As of 5:15 PM on Sunday 21 Dec 2014 (Local Time) from KINJ Reporting Station
Overcast Overcast  
Wind Chill: 52°   Ceiling: 1900
Heat Index: 52°   Visibility: 10mi
Dew Point: 46°   Wind: 14mph
Humidity: 80%   Direction: 160°SSE
Pressure: 29.87"   Gusts: NA
Location:  31.99°N, 96.87°W
Report Text: KINJ 212315Z AUTO 16012KT 10SM OVC019 11/08 A2987 RMK AO2 T01110077
Loading
Personal Weather Stations






























Interactive Weather Map New forecast layout! Learn more

10-Day Weather Forecast

Advertisements
Track Severe Weather on mobile